Terminal Aerodrome Forecast
Issued by NWS

Home | Current Version | Previous Version | Text Only | Print | Product List | Glossary On
Versions: 1 2 3 4 5 6 7 8 9 10 11 12 13 14 15 16 17 18 19 20 21 22 23 24 25 26 27 28 29
000
FTUS43 KDVN 201300 AAB
TAFBRL
TAF AMD
KBRL 201329Z 2013/2112 VRB02KT 6SM BR VCTS FEW050CB BKN250
      TEMPO 2013/2014 VRB15G27KT 1SM TSRA BR BKN015CB OVC030
     FM201500 21007KT P6SM SCT050
     FM210200 17003KT P6SM VCTS FEW050CB BKN120=

USA.gov is the U.S. government's official web portal to all federal, state and local government web resources and services.